Time;durP1;ratioP1;P1;durP2;ratioP2;P2;SDS_P1;SDS_P2;PMS_P1;PMS_P2;Temp;Humidity;BMP_temperature;BMP_pressure;BME280_temperature;BME280_humidity;BME280_pressure;Samples;Min_cycle;Max_cycle;Signal;HPM_P1;HPM_P2
2021/05/28 00:01:31;;;;;;;10.68;3.70;;;;;;;8.97;83.63;101941.63;5089414;28;20044;-69
2021/05/28 00:03:57;;;;;;;14.90;3.78;;;;;;;8.96;83.54;101948.53;5079338;28;20087;-68
2021/05/28 00:06:22;;;;;;;10.07;4.25;;;;;;;8.95;83.26;101951.13;5098247;28;20048;-69
2021/05/28 00:08:49;;;;;;;7.90;3.40;;;;;;;8.94;83.35;101946.81;5075960;28;20421;-69
2021/05/28 00:11:16;;;;;;;11.93;3.58;;;;;;;8.89;83.14;101956.25;5082352;28;20049;-69
2021/05/28 00:13:42;;;;;;;15.77;5.10;;;;;;;8.83;84.40;101954.53;5083120;28;20060;-69
2021/05/28 00:16:07;;;;;;;13.40;4.07;;;;;;;8.80;84.46;101959.66;5087311;28;20052;-69
2021/05/28 00:18:33;;;;;;;9.25;4.28;;;;;;;8.75;83.62;101963.94;5078047;28;20044;-68
2021/05/28 00:21:00;;;;;;;11.88;3.60;;;;;;;8.71;83.98;101957.84;5093600;28;20093;-69
2021/05/28 00:23:26;;;;;;;15.48;4.45;;;;;;;8.71;84.34;101955.25;5082904;28;20055;-68
2021/05/28 00:25:51;;;;;;;13.93;3.55;;;;;;;8.74;84.26;101957.00;5079908;28;20041;-69
2021/05/28 00:28:18;;;;;;;12.32;4.40;;;;;;;8.73;84.91;101957.91;5084824;28;20101;-69
2021/05/28 00:30:44;;;;;;;13.65;3.85;;;;;;;8.70;84.25;101953.53;5079666;28;20040;-69
2021/05/28 00:33:10;;;;;;;11.80;3.53;;;;;;;8.70;85.20;101958.72;5079587;28;20047;-68
2021/05/28 00:35:36;;;;;;;9.57;3.80;;;;;;;8.74;83.98;101959.59;5098339;28;20069;-69
2021/05/28 00:38:02;;;;;;;9.60;4.15;;;;;;;8.69;84.13;101963.03;5098322;28;20152;-69
2021/05/28 00:40:28;;;;;;;8.02;4.10;;;;;;;8.69;84.63;101959.56;5091916;28;20122;-69
2021/05/28 00:42:54;;;;;;;10.02;3.42;;;;;;;8.70;84.12;101963.91;5080611;28;20055;-68
2021/05/28 00:45:21;;;;;;;10.18;4.72;;;;;;;8.68;84.34;101966.50;5081758;28;20052;-69
2021/05/28 00:47:47;;;;;;;11.48;4.00;;;;;;;8.68;84.43;101966.50;5083517;28;20040;-69
2021/05/28 00:50:13;;;;;;;11.93;3.88;;;;;;;8.63;84.15;101970.78;5094781;28;20135;-69
2021/05/28 00:52:39;;;;;;;16.95;5.05;;;;;;;8.58;84.25;101969.88;5092534;28;20044;-69
2021/05/28 00:55:07;;;;;;;14.90;4.80;;;;;;;8.58;84.12;101967.28;5082158;28;20056;-69
2021/05/28 00:57:34;;;;;;;11.15;3.97;;;;;;;8.57;84.45;101978.50;5089560;28;20051;-68
2021/05/28 01:00:02;;;;;;;10.20;3.75;;;;;;;8.50;84.74;101976.72;5078031;28;23656;-70
2021/05/28 01:02:28;;;;;;;15.07;4.13;;;;;;;8.47;84.74;101979.22;5082352;28;20062;-68
2021/05/28 01:04:54;;;;;;;14.98;4.32;;;;;;;8.47;85.30;101979.22;5088632;28;20089;-68
2021/05/28 01:07:20;;;;;;;11.07;4.40;;;;;;;8.44;84.80;101981.78;5086259;28;20048;-69
2021/05/28 01:09:47;;;;;;;8.85;3.92;;;;;;;8.45;85.03;101986.13;5081555;28;20048;-69
2021/05/28 01:12:13;;;;;;;9.63;3.97;;;;;;;8.48;84.29;101991.38;5077108;28;20052;-68
2021/05/28 01:14:39;;;;;;;13.70;4.10;;;;;;;8.46;84.45;101996.53;5081640;28;20124;-69
2021/05/28 01:17:05;;;;;;;9.82;3.88;;;;;;;8.41;84.32;101990.41;5088482;28;20043;-69
2021/05/28 01:19:32;;;;;;;12.00;3.97;;;;;;;8.40;84.70;101999.94;5102999;28;20051;-69
2021/05/28 01:22:04;;;;;;;11.90;4.20;;;;;;;8.39;83.93;101993.00;5087377;28;20044;-69
2021/05/28 01:24:30;;;;;;;13.55;4.82;;;;;;;8.32;84.23;102001.56;5086302;28;20063;-69
2021/05/28 01:26:56;;;;;;;13.15;4.07;;;;;;;8.27;84.80;102000.63;5078617;28;20051;-69
2021/05/28 01:29:22;;;;;;;19.55;4.63;;;;;;;8.25;84.84;102004.94;5080368;28;20047;-69
2021/05/28 01:31:48;;;;;;;14.10;4.10;;;;;;;8.25;85.07;102005.81;5077358;28;20126;-69
2021/05/28 01:34:14;;;;;;;10.85;4.55;;;;;;;8.25;85.06;101999.75;5081081;28;20052;-69
2021/05/28 01:36:40;;;;;;;12.05;4.90;;;;;;;8.20;85.16;101999.69;5083498;28;20114;-69
2021/05/28 01:39:06;;;;;;;8.43;3.67;;;;;;;8.19;85.64;101992.78;5092603;28;20061;-69
2021/05/28 01:41:32;;;;;;;9.85;3.80;;;;;;;8.15;85.74;101988.41;5081128;28;20081;-69
2021/05/28 01:43:58;;;;;;;11.55;4.80;;;;;;;8.14;85.14;101986.69;5078265;28;20036;-69
2021/05/28 01:46:25;;;;;;;9.27;4.15;;;;;;;8.14;84.90;101988.38;5071654;28;20058;-68
2021/05/28 01:48:51;;;;;;;13.75;4.72;;;;;;;8.08;84.83;101984.03;5082863;28;20413;-68
2021/05/28 01:51:17;;;;;;;13.00;4.20;;;;;;;8.13;84.63;101978.91;5096889;28;20149;-69
2021/05/28 01:53:43;;;;;;;9.75;3.80;;;;;;;8.09;84.77;101983.16;5089669;28;20066;-68
2021/05/28 01:56:10;;;;;;;13.13;4.00;;;;;;;8.09;85.39;101981.44;5077951;28;20405;-67
2021/05/28 01:58:36;;;;;;;10.07;3.72;;;;;;;8.03;84.93;101973.63;5080477;28;20077;-68
2021/05/28 02:01:02;;;;;;;8.25;3.97;;;;;;;8.01;84.78;101967.53;5085497;28;20059;-68
2021/05/28 02:03:29;;;;;;;10.68;4.70;;;;;;;8.02;85.09;101977.06;5092182;28;20052;-69
2021/05/28 02:05:54;;;;;;;9.95;3.80;;;;;;;8.01;85.03;101977.91;5093346;28;20045;-69
2021/05/28 02:08:20;;;;;;;10.60;4.30;;;;;;;8.01;84.93;101977.91;5086564;28;20055;-69
2021/05/28 02:10:47;;;;;;;16.10;4.78;;;;;;;8.02;85.25;101973.56;5079123;28;20048;-69
2021/05/28 02:13:14;;;;;;;14.98;4.38;;;;;;;7.99;85.26;101974.41;5078321;28;20044;-68
2021/05/28 02:15:40;;;;;;;13.43;4.55;;;;;;;7.98;85.25;101977.00;5079083;28;20059;-68
2021/05/28 02:18:07;;;;;;;12.27;4.25;;;;;;;7.99;84.89;101979.59;5084303;28;20048;-68
2021/05/28 02:20:33;;;;;;;14.45;4.57;;;;;;;8.04;85.04;101983.09;5080239;28;20045;-68
2021/05/28 02:22:59;;;;;;;15.65;4.28;;;;;;;8.00;84.79;101981.34;5071540;28;20052;-69
2021/05/28 02:25:25;;;;;;;8.85;4.65;;;;;;;8.02;85.24;101984.84;5082761;28;20043;-68
2021/05/28 02:27:51;;;;;;;12.82;4.68;;;;;;;8.01;85.60;101988.28;5076315;28;20916;-68
2021/05/28 02:30:18;;;;;;;9.35;4.53;;;;;;;7.98;85.34;101992.56;5079338;28;20052;-68
2021/05/28 02:32:44;;;;;;;12.35;4.97;;;;;;;8.00;85.35;101990.81;5100013;28;20500;-69
2021/05/28 02:35:12;;;;;;;15.25;4.00;;;;;;;7.97;85.74;101993.41;5089652;28;20484;-68
2021/05/28 02:37:38;;;;;;;10.02;4.40;;;;;;;7.93;85.89;101990.75;5085748;28;20056;-68
2021/05/28 02:40:06;;;;;;;13.10;4.80;;;;;;;7.90;85.16;101989.84;5077640;28;20090;-68
2021/05/28 02:42:33;;;;;;;13.15;4.00;;;;;;;7.91;84.93;101986.41;5077399;28;20060;-67
2021/05/28 02:44:59;;;;;;;11.65;4.40;;;;;;;7.90;85.41;101998.47;5082193;28;20386;-68
2021/05/28 02:47:25;;;;;;;8.75;4.00;;;;;;;7.77;85.13;101994.88;5078372;28;20555;-68
2021/05/28 02:49:52;;;;;;;9.85;4.68;;;;;;;7.71;85.55;102001.69;5086249;28;20173;-68
2021/05/28 02:52:18;;;;;;;9.77;4.43;;;;;;;7.69;85.34;101995.63;5075673;28;20056;-68
2021/05/28 02:54:45;;;;;;;13.23;4.47;;;;;;;7.70;84.49;101994.78;5076938;28;20043;-67
2021/05/28 02:57:11;;;;;;;8.73;4.43;;;;;;;7.73;84.58;101995.72;5079931;28;20056;-67
2021/05/28 02:59:38;;;;;;;13.77;4.88;;;;;;;7.72;84.50;102000.84;5078607;28;20054;-68
2021/05/28 03:02:05;;;;;;;8.85;4.50;;;;;;;7.70;84.69;102000.84;5081321;28;20512;-67
2021/05/28 03:04:32;;;;;;;9.95;4.28;;;;;;;7.66;84.89;102000.78;5097467;28;20051;-68
2021/05/28 03:06:58;;;;;;;11.40;4.15;;;;;;;7.67;85.58;101998.19;5080226;28;20048;-68
2021/05/28 03:09:24;;;;;;;12.73;4.43;;;;;;;7.57;85.33;102006.69;5085385;28;20055;-68
2021/05/28 03:11:50;;;;;;;11.00;3.90;;;;;;;7.59;84.82;102013.63;5092598;28;20044;-68
2021/05/28 03:14:18;;;;;;;6.93;3.63;;;;;;;7.50;85.02;102010.06;5075839;28;20044;-69
2021/05/28 03:16:44;;;;;;;10.05;5.65;;;;;;;7.36;84.82;102021.06;5077186;28;20044;-68
2021/05/28 03:19:18;;;;;;;9.65;5.13;;;;;;;7.36;84.89;102015.88;5094630;28;20425;-68
2021/05/28 03:24:25;;;;;;;9.50;4.03;;;;;;;7.33;84.18;102021.03;5087895;28;20044;-67
2021/05/28 03:26:51;;;;;;;9.02;4.03;;;;;;;7.36;83.52;102020.22;5080707;28;20039;-68
2021/05/28 03:29:17;;;;;;;9.35;4.40;;;;;;;7.36;83.86;102022.81;5082777;28;20078;-68
2021/05/28 03:31:43;;;;;;;11.95;3.92;;;;;;;7.35;83.36;102031.41;5071675;28;20075;-67
2021/05/28 03:34:09;;;;;;;11.10;4.65;;;;;;;7.33;83.80;102031.41;5082191;28;20079;-68
2021/05/28 03:36:35;;;;;;;8.70;4.50;;;;;;;7.34;83.80;102038.28;5083589;28;20552;-68
2021/05/28 03:39:02;;;;;;;14.00;4.70;;;;;;;7.38;83.29;102045.25;5094319;28;20050;-68
2021/05/28 03:41:28;;;;;;;10.50;4.38;;;;;;;7.42;83.45;102041.88;5072435;28;20055;-68
2021/05/28 03:43:54;;;;;;;9.40;4.35;;;;;;;7.39;83.61;102047.00;5077859;28;20082;-69
2021/05/28 03:46:20;;;;;;;9.90;4.43;;;;;;;7.47;83.60;102050.56;5076415;28;20071;-68
2021/05/28 03:48:45;;;;;;;9.95;5.00;;;;;;;7.49;84.29;102054.91;5083659;28;20493;-68
2021/05/28 03:51:11;;;;;;;12.48;5.90;;;;;;;7.45;84.41;102054.84;5086556;28;20044;-67
2021/05/28 03:53:37;;;;;;;16.17;6.65;;;;;;;7.40;85.13;102053.94;5090569;28;20532;-67
2021/05/28 03:56:05;;;;;;;10.18;5.85;;;;;;;7.44;85.21;102060.03;5074627;28;20048;-68
2021/05/28 03:58:31;;;;;;;9.38;5.43;;;;;;;7.46;85.50;102060.91;5084915;28;20070;-68
2021/05/28 04:00:57;;;;;;;10.27;4.68;;;;;;;7.50;86.18;102061.84;5079648;28;20263;-68
2021/05/28 04:03:23;;;;;;;8.02;5.18;;;;;;;7.47;85.82;102070.44;5071424;28;20048;-68
2021/05/28 04:05:49;;;;;;;8.43;4.57;;;;;;;7.56;85.13;102067.97;5083860;28;20046;-68
2021/05/28 04:08:14;;;;;;;11.35;4.82;;;;;;;7.68;84.95;102062.09;5090946;28;20054;-68
2021/05/28 04:10:40;;;;;;;12.38;5.88;;;;;;;7.71;84.32;102063.84;5095658;28;23227;-68
2021/05/28 04:13:07;;;;;;;26.92;11.05;;;;;;;7.70;85.16;102069.88;5078050;28;20118;-69
2021/05/28 04:15:33;;;;;;;35.50;17.17;;;;;;;7.68;86.33;102069.88;5083749;28;20051;-69
2021/05/28 04:17:59;;;;;;;35.22;16.15;;;;;;;7.67;86.54;102075.03;5091076;28;20053;-69
2021/05/28 04:20:25;;;;;;;38.47;18.95;;;;;;;7.72;86.36;102076.84;5079866;28;20052;-70
2021/05/28 04:22:51;;;;;;;44.47;21.15;;;;;;;7.66;86.76;102073.28;5076287;28;20079;-70
2021/05/28 04:25:17;;;;;;;61.38;21.70;;;;;;;7.65;87.01;102066.38;5079625;28;20051;-69
2021/05/28 04:27:43;;;;;;;51.30;24.75;;;;;;;7.62;87.72;102068.06;5081340;28;20040;-70
2021/05/28 04:30:11;;;;;;;54.90;25.45;;;;;;;7.61;87.74;102065.47;5087334;28;20509;-69
2021/05/28 04:32:37;;;;;;;86.20;30.15;;;;;;;7.61;88.39;102068.91;5089527;28;20047;-69
2021/05/28 04:35:04;;;;;;;99.18;30.55;;;;;;;7.63;88.78;102076.72;5082247;28;20111;-68
2021/05/28 04:37:30;;;;;;;78.90;29.48;;;;;;;7.51;89.36;102081.69;5079225;28;20052;-69
2021/05/28 04:39:56;;;;;;;66.90;32.38;;;;;;;7.58;89.51;102080.94;5090228;28;20055;-69
2021/05/28 04:42:22;;;;;;;58.03;31.35;;;;;;;7.51;89.55;102086.88;5074773;28;20082;-69
2021/05/28 04:44:48;;;;;;;66.38;31.23;;;;;;;7.59;89.25;102088.72;5075186;28;20048;-69
2021/05/28 04:47:15;;;;;;;65.05;34.03;;;;;;;7.63;89.76;102094.84;5085613;28;20969;-69
2021/05/28 04:49:41;;;;;;;67.43;32.25;;;;;;;7.51;89.05;102090.31;5092139;28;20120;-69
2021/05/28 04:52:07;;;;;;;61.13;33.70;;;;;;;7.45;89.67;102098.88;5081869;28;20394;-67
2021/05/28 04:54:33;;;;;;;67.55;35.97;;;;;;;7.55;89.42;102096.41;5087985;28;20077;-69
2021/05/28 04:56:59;;;;;;;64.53;36.15;;;;;;;7.55;90.21;102101.59;5083322;28;20052;-68
2021/05/28 04:59:25;;;;;;;66.22;36.85;;;;;;;7.60;89.87;102097.38;5084182;28;20076;-69
2021/05/28 05:01:50;;;;;;;58.45;34.03;;;;;;;7.66;89.54;102106.97;5076423;28;20057;-69
2021/05/28 05:04:17;;;;;;;69.40;33.15;;;;;;;7.75;88.78;102114.88;5089384;28;20052;-69
2021/05/28 05:06:43;;;;;;;62.42;34.53;;;;;;;7.81;89.00;102111.50;5092420;28;20044;-68
2021/05/28 05:09:09;;;;;;;62.83;34.08;;;;;;;7.89;88.43;102110.72;5085626;28;20059;-69
2021/05/28 05:11:35;;;;;;;62.55;34.40;;;;;;;7.97;88.25;102113.44;5082993;28;20046;-68
2021/05/28 05:14:01;;;;;;;62.00;35.35;;;;;;;8.08;87.41;102121.38;5075395;28;20048;-68
2021/05/28 05:16:27;;;;;;;57.72;33.42;;;;;;;8.09;88.14;102121.38;5083938;28;20044;-68
2021/05/28 05:18:53;;;;;;;67.65;33.22;;;;;;;8.11;87.90;102125.72;5090485;28;20047;-68
2021/05/28 05:21:19;;;;;;;64.47;33.20;;;;;;;8.07;87.51;102128.25;5084154;28;20459;-67
2021/05/28 05:23:45;;;;;;;54.10;33.03;;;;;;;8.12;87.94;102119.69;5079628;28;20065;-67
2021/05/28 05:26:11;;;;;;;60.05;32.58;;;;;;;8.21;87.47;102125.84;5087285;28;20485;-67
2021/05/28 05:28:37;;;;;;;54.70;31.63;;;;;;;8.33;86.92;102122.56;5089547;28;20527;-67
2021/05/28 05:31:03;;;;;;;55.97;32.55;;;;;;;8.43;86.65;102127.88;5082459;28;20060;-68
2021/05/28 05:33:29;;;;;;;60.22;32.92;;;;;;;8.42;86.52;102136.50;5076453;28;20740;-69
2021/05/28 05:35:55;;;;;;;55.78;30.40;;;;;;;8.48;86.74;102144.38;5082994;28;20488;-68
2021/05/28 05:38:22;;;;;;;53.28;31.35;;;;;;;8.49;86.51;102135.75;5098201;28;20044;-68
2021/05/28 05:40:48;;;;;;;52.55;31.63;;;;;;;8.62;86.33;102137.63;5078464;28;20055;-68
2021/05/28 05:43:14;;;;;;;59.65;34.33;;;;;;;8.57;85.73;102136.69;5081863;28;20054;-67
2021/05/28 05:45:41;;;;;;;64.20;31.65;;;;;;;8.60;85.81;102139.34;5078655;28;20044;-67
2021/05/28 05:48:08;;;;;;;55.65;30.42;;;;;;;8.59;86.08;102137.59;5074504;28;20083;-68
2021/05/28 05:50:34;;;;;;;43.97;27.58;;;;;;;8.63;86.18;102149.75;5082896;28;20044;-67
2021/05/28 05:53:00;;;;;;;46.75;26.40;;;;;;;8.70;85.02;102146.38;5081494;28;20509;-68
2021/05/28 05:55:26;;;;;;;45.53;26.42;;;;;;;8.80;84.27;102149.91;5082114;28;20055;-67
2021/05/28 05:57:53;;;;;;;46.72;26.95;;;;;;;8.85;85.12;102150.84;5086661;28;20048;-68
2021/05/28 06:00:20;;;;;;;55.13;28.10;;;;;;;8.90;84.20;102152.63;5074575;28;20832;-68
2021/05/28 06:02:46;;;;;;;57.50;27.38;;;;;;;8.88;83.72;102157.78;5081419;28;20096;-68
2021/05/28 06:05:13;;;;;;;45.78;27.60;;;;;;;8.82;84.19;102160.34;5078047;28;20555;-68
2021/05/28 06:07:39;;;;;;;53.47;29.48;;;;;;;8.74;84.34;102152.47;5084510;28;20681;-68
2021/05/28 06:10:06;;;;;;;47.85;27.90;;;;;;;8.78;85.21;102156.84;5074643;28;20048;-69
2021/05/28 06:12:33;;;;;;;55.40;29.58;;;;;;;8.88;83.80;102159.53;5075091;28;20517;-68
2021/05/28 06:14:59;;;;;;;45.28;28.30;;;;;;;8.94;83.87;102165.63;5087781;28;20505;-68
2021/05/28 06:17:25;;;;;;;54.13;28.42;;;;;;;8.95;84.37;102162.19;5089792;22;20068;-67
2021/05/28 06:19:52;;;;;;;60.03;29.33;;;;;;;8.84;83.56;102163.78;5079443;28;20097;-66
2021/05/28 06:22:21;;;;;;;48.85;28.10;;;;;;;8.83;84.04;102162.09;5078531;28;20486;-71
2021/05/28 06:24:47;;;;;;;51.85;30.50;;;;;;;8.89;84.40;102171.63;5079967;28;20052;-68
2021/05/28 06:27:13;;;;;;;50.75;30.90;;;;;;;8.95;84.61;102177.75;5079489;28;20060;-67
2021/05/28 06:29:40;;;;;;;58.60;30.98;;;;;;;9.06;83.51;102177.00;5073659;28;20425;-70
2021/05/28 06:32:06;;;;;;;58.28;31.38;;;;;;;9.14;84.20;102183.13;5082420;28;20125;-67
2021/05/28 06:34:32;;;;;;;59.15;29.63;;;;;;;9.00;83.61;102183.88;5082379;28;20051;-67
2021/05/28 06:36:59;;;;;;;77.95;34.17;;;;;;;9.15;83.74;102180.56;5081748;28;20127;-65
2021/05/28 06:39:25;;;;;;;72.07;32.92;;;;;;;9.23;83.43;102185.84;5077924;28;20068;-66
2021/05/28 06:41:51;;;;;;;68.75;33.00;;;;;;;9.18;83.32;102184.94;5078394;28;20040;-65
2021/05/28 06:44:23;;;;;;;67.47;34.17;;;;;;;9.24;82.70;102192.75;5076847;28;20048;-65
2021/05/28 06:46:50;;;;;;;61.03;33.25;;;;;;;9.26;83.31;102196.25;5078975;28;20048;-66
2021/05/28 06:49:16;;;;;;;62.08;34.63;;;;;;;9.34;82.34;102180.75;5075930;28;20044;-66
2021/05/28 06:51:42;;;;;;;63.58;32.47;;;;;;;9.42;81.89;102186.88;5081545;28;20106;-66
2021/05/28 06:54:08;;;;;;;69.65;36.05;;;;;;;9.39;82.00;102185.97;5080311;28;20045;-66
2021/05/28 06:56:34;;;;;;;69.78;36.80;;;;;;;9.46;82.25;102187.78;5076530;28;20040;-68
2021/05/28 06:59:00;;;;;;;71.00;36.97;;;;;;;9.38;82.33;102187.72;5078675;28;20049;-67
2021/05/28 07:01:26;;;;;;;68.30;37.45;;;;;;;9.53;81.63;102192.19;5074383;28;20570;-66
2021/05/28 07:03:53;;;;;;;72.85;36.25;;;;;;;9.64;81.44;102192.25;5076459;28;20044;-67
2021/05/28 07:06:19;;;;;;;68.70;34.42;;;;;;;9.78;80.98;102187.19;5077571;28;20066;-67
2021/05/28 07:08:45;;;;;;;75.18;33.38;;;;;;;9.79;80.90;102191.50;5080411;28;20053;-69
2021/05/28 07:11:11;;;;;;;68.25;34.28;;;;;;;9.90;79.81;102188.97;5073479;28;20109;-67
2021/05/28 07:13:37;;;;;;;71.32;33.20;;;;;;;9.94;80.28;102195.97;5077128;28;20040;-66
2021/05/28 07:16:04;;;;;;;70.72;34.67;;;;;;;9.99;80.33;102196.84;5076270;28;20121;-66
2021/05/28 07:18:30;;;;;;;68.75;36.10;;;;;;;9.88;80.05;102196.78;5082093;28;20052;-66
2021/05/28 07:20:57;;;;;;;70.88;36.42;;;;;;;9.87;80.17;102196.78;5078112;28;20060;-66
2021/05/28 07:23:24;;;;;;;67.10;35.40;;;;;;;9.83;80.92;102188.09;5075174;28;20044;-66
2021/05/28 07:25:50;;;;;;;59.20;32.58;;;;;;;9.99;80.47;102194.25;5079192;28;20072;-66
2021/05/28 07:28:16;;;;;;;68.35;34.97;;;;;;;10.18;79.96;102200.44;5074303;28;20114;-67
2021/05/28 07:30:42;;;;;;;69.32;34.72;;;;;;;10.34;80.28;102195.31;5071191;28;20060;-66
2021/05/28 07:33:08;;;;;;;67.07;33.83;;;;;;;10.48;79.59;102196.28;5072023;28;20083;-70
2021/05/28 07:35:34;;;;;;;68.30;34.00;;;;;;;10.56;79.23;102192.00;5075704;28;20083;-66
2021/05/28 07:38:01;;;;;;;64.03;34.28;;;;;;;10.71;79.21;102196.38;5075415;28;20138;-66
2021/05/28 07:40:27;;;;;;;70.07;36.38;;;;;;;10.94;78.05;102192.13;5072541;28;20059;-66
2021/05/28 07:42:53;;;;;;;66.25;33.30;;;;;;;11.08;76.60;102192.19;5071505;28;20045;-68
2021/05/28 07:45:19;;;;;;;72.40;36.90;;;;;;;11.23;76.43;102200.00;5074162;28;20043;-66
2021/05/28 07:47:45;;;;;;;63.53;33.25;;;;;;;11.48;75.45;102198.28;5074661;28;20054;-66
2021/05/28 07:50:11;;;;;;;70.40;36.05;;;;;;;11.58;75.00;102208.72;5071307;28;20063;-65
2021/05/28 07:52:37;;;;;;;70.07;36.90;;;;;;;11.62;75.19;102202.66;5069118;28;20051;-65
2021/05/28 07:55:06;;;;;;;74.97;36.72;;;;;;;11.70;74.55;102200.91;5076188;28;20075;-66
2021/05/28 07:57:32;;;;;;;64.13;37.05;;;;;;;11.86;74.47;102203.50;5078129;28;20052;-68
2021/05/28 07:59:58;;;;;;;71.68;38.20;;;;;;;11.88;73.69;102212.19;5074900;28;20094;-67
2021/05/28 08:02:25;;;;;;;69.50;38.45;;;;;;;11.69;74.39;102225.22;5076405;28;20339;-66
2021/05/28 08:04:51;;;;;;;72.50;39.85;;;;;;;11.64;74.48;102217.41;5075970;28;20054;-66
2021/05/28 08:07:17;;;;;;;69.85;41.63;;;;;;;11.52;74.38;102217.41;5067440;28;20865;-67
2021/05/28 08:09:45;;;;;;;74.82;41.90;;;;;;;11.48;74.90;102213.03;5078583;28;20135;-69
2021/05/28 08:12:11;;;;;;;75.93;43.45;;;;;;;11.38;74.73;102212.19;5072745;28;20121;-69
2021/05/28 08:14:38;;;;;;;76.35;42.15;;;;;;;11.37;74.79;102210.44;5077166;28;20098;-66
2021/05/28 08:17:04;;;;;;;75.78;41.20;;;;;;;11.24;74.79;102208.66;5066979;28;20063;-67
2021/05/28 08:19:30;;;;;;;76.43;44.15;;;;;;;11.29;74.66;102212.16;5080335;28;20522;-67
2021/05/28 08:21:56;;;;;;;77.40;45.03;;;;;;;11.45;74.07;102213.06;5073131;28;20457;-68
2021/05/28 08:24:22;;;;;;;81.97;45.15;;;;;;;11.60;74.49;102213.06;5072442;28;20136;-68
2021/05/28 08:26:48;;;;;;;81.65;46.13;;;;;;;11.73;72.95;102207.84;5078890;28;20044;-69
2021/05/28 08:29:15;;;;;;;84.80;45.58;;;;;;;11.76;72.89;102218.28;5076572;28;20052;-69
2021/05/28 08:31:41;;;;;;;75.63;44.80;;;;;;;12.05;73.09;102217.41;5072717;28;20089;-69
2021/05/28 08:34:07;;;;;;;77.88;45.00;;;;;;;12.33;71.79;102218.22;5070342;28;20157;-69
2021/05/28 08:36:33;;;;;;;74.80;43.78;;;;;;;12.48;71.98;102217.28;5079554;28;20130;-69
2021/05/28 08:38:59;;;;;;;73.05;45.10;;;;;;;12.60;69.98;102214.66;5081609;28;20064;-70
2021/05/28 08:41:26;;;;;;;78.18;45.15;;;;;;;12.87;70.17;102214.53;5073181;28;20093;-71
2021/05/28 08:43:53;;;;;;;80.55;45.40;;;;;;;12.99;68.92;102217.09;5074790;28;20117;-68
2021/05/28 08:46:21;;;;;;;73.03;43.88;;;;;;;13.31;69.77;102213.41;5079038;28;20052;-70
2021/05/28 08:48:50;;;;;;;75.45;41.78;;;;;;;13.71;70.14;102211.41;5076247;28;20062;-69
2021/05/28 08:51:16;;;;;;;69.60;39.95;;;;;;;13.92;69.41;102212.94;5072531;28;20055;-69
2021/05/28 08:53:42;;;;;;;69.43;40.03;;;;;;;13.83;66.53;102206.94;5087328;28;20059;-68
2021/05/28 08:56:09;;;;;;;64.43;38.92;;;;;;;13.51;67.24;102210.69;5084932;28;20056;-67
2021/05/28 08:58:35;;;;;;;65.55;40.95;;;;;;;12.99;67.49;102208.38;5075922;28;20110;-68
2021/05/28 09:01:01;;;;;;;70.40;41.00;;;;;;;12.71;69.33;102217.25;5077091;28;20044;-69
2021/05/28 09:03:29;;;;;;;66.40;38.47;;;;;;;12.54;69.36;102225.13;5075911;28;20040;-68
2021/05/28 09:05:56;;;;;;;65.55;37.38;;;;;;;12.52;69.10;102226.88;5073071;28;20052;-68
2021/05/28 09:08:27;;;;;;;65.22;37.33;;;;;;;12.70;69.74;102218.09;5076323;28;20515;-69
2021/05/28 09:10:54;;;;;;;69.78;38.97;;;;;;;13.01;71.25;102220.56;5075852;28;20051;-70
2021/05/28 09:13:26;;;;;;;62.10;37.40;;;;;;;13.42;70.19;102210.75;5076238;28;20075;-71
2021/05/28 09:16:05;;;;;;;58.90;35.20;;;;;;;13.71;68.51;102211.41;5075550;28;20047;-68
2021/05/28 09:18:42;;;;;;;60.45;35.58;;;;;;;13.74;65.61;102208.75;5076386;28;20078;-69
2021/05/28 09:21:08;;;;;;;56.35;34.47;;;;;;;13.75;65.88;102213.09;5083109;28;21558;-67
2021/05/28 09:23:34;;;;;;;54.50;31.98;;;;;;;13.58;66.78;102214.13;5074973;28;20105;-69
2021/05/28 09:26:04;;;;;;;54.17;30.30;;;;;;;13.61;68.05;102211.50;5075471;28;20047;-67
2021/05/28 09:28:36;;;;;;;61.42;33.20;;;;;;;13.57;68.34;102204.53;5078756;28;20058;-69
2021/05/28 09:31:04;;;;;;;59.20;33.05;;;;;;;13.67;70.12;102206.19;5073353;28;20053;-73
2021/05/28 09:33:34;;;;;;;52.28;30.88;;;;;;;13.72;67.00;102202.69;5074513;28;20059;-72
2021/05/28 09:36:10;;;;;;;52.15;30.77;;;;;;;13.67;66.78;102195.72;5076764;28;20048;-67
2021/05/28 09:38:37;;;;;;;47.35;29.38;;;;;;;13.54;67.65;102194.09;5074171;28;20486;-66
2021/05/28 09:41:03;;;;;;;49.20;30.33;;;;;;;13.61;67.40;102193.19;5074433;28;20052;-67
2021/05/28 09:43:29;;;;;;;53.80;32.03;;;;;;;13.66;67.02;102194.00;5072182;28;20063;-67
2021/05/28 09:45:55;;;;;;;56.15;31.50;;;;;;;13.68;66.64;102192.25;5074319;28;20080;-66
2021/05/28 09:48:25;;;;;;;50.95;29.20;;;;;;;13.53;66.11;102192.34;5077130;28;20052;-66
2021/05/28 09:50:53;;;;;;;49.13;28.08;;;;;;;13.44;67.59;102192.44;5071894;28;20040;-66
2021/05/28 09:53:36;;;;;;;47.60;27.63;;;;;;;13.61;68.27;102190.56;5083473;28;20067;-66
2021/05/28 09:56:23;;;;;;;45.17;27.85;;;;;;;13.70;67.89;102188.75;5074796;28;20968;-65
2021/05/28 09:58:57;;;;;;;31.23;18.42;;;;;;;13.74;62.75;102188.72;5077402;28;20054;-68
2021/05/28 10:01:23;;;;;;;43.22;23.38;;;;;;;13.64;65.33;102179.22;5065463;28;20043;-68
2021/05/28 10:04:03;;;;;;;36.53;22.50;;;;;;;13.88;66.34;102183.34;5071300;28;20110;-66
2021/05/28 10:06:30;;;;;;;37.78;22.88;;;;;;;14.19;66.76;102182.13;5069151;28;20051;-68
2021/05/28 10:09:02;;;;;;;41.85;25.40;;;;;;;14.37;64.49;102179.34;5073566;28;20055;-65
2021/05/28 10:11:30;;;;;;;36.45;21.90;;;;;;;14.51;64.07;102181.78;5075100;28;20409;-67
2021/05/28 10:13:56;;;;;;;37.85;20.77;;;;;;;14.66;64.27;102178.09;5070648;28;20068;-66
2021/05/28 10:16:24;;;;;;;35.28;21.25;;;;;;;14.68;64.12;102171.09;5067306;28;20201;-68
2021/05/28 10:18:51;;;;;;;35.10;19.33;;;;;;;14.80;62.96;102167.47;5076226;28;20052;-66
2021/05/28 10:21:17;;;;;;;31.70;19.35;;;;;;;14.85;61.89;102170.88;5070040;28;20051;-66
2021/05/28 10:23:44;;;;;;;32.92;18.27;;;;;;;14.88;62.44;102165.59;5067501;28;20053;-67
2021/05/28 10:26:12;;;;;;;32.88;18.38;;;;;;;14.96;62.94;102168.13;5079042;28;20040;-67
2021/05/28 10:28:47;;;;;;;36.22;17.70;;;;;;;14.91;61.74;102164.69;5080608;28;20044;-65
2021/05/28 10:31:14;;;;;;;23.58;15.57;;;;;;;14.95;62.57;102165.50;5076854;28;20139;-67
2021/05/28 10:33:47;;;;;;;26.17;15.27;;;;;;;14.71;62.55;102164.97;5067084;28;20055;-69
2021/05/28 10:36:13;;;;;;;23.92;13.50;;;;;;;14.69;63.80;102159.75;5073961;28;20152;-68
2021/05/28 10:38:52;;;;;;;24.92;13.25;;;;;;;14.70;63.71;102152.78;5073403;28;20056;-67
2021/05/28 10:41:51;;;;;;;28.10;14.70;;;;;;;14.71;60.96;102165.84;5074167;28;20060;-67
2021/05/28 10:44:22;;;;;;;28.73;15.07;;;;;;;14.58;62.09;102156.38;5075506;28;20054;-67
2021/05/28 10:46:53;;;;;;;29.13;16.42;;;;;;;14.70;61.23;102163.25;5065057;28;20106;-65
2021/05/28 10:49:19;;;;;;;29.25;16.02;;;;;;;14.76;61.92;102143.06;5070860;28;20425;-67
2021/05/28 10:52:07;;;;;;;26.27;15.85;;;;;;;14.98;62.32;102152.38;5067434;28;20047;-66
2021/05/28 10:54:39;;;;;;;21.65;14.27;;;;;;;15.51;59.26;102150.66;5075275;28;20109;-68
2021/05/28 10:57:51;;;;;;;22.95;14.10;;;;;;;15.94;59.73;102153.41;5081765;28;20493;-67
2021/05/28 11:00:27;;;;;;;21.13;13.18;;;;;;;16.26;56.34;102150.16;5077961;28;20397;-67
2021/05/28 11:03:09;;;;;;;21.27;13.25;;;;;;;16.37;57.60;102151.69;5068542;28;20389;-67
2021/05/28 11:05:48;;;;;;;17.60;11.68;;;;;;;16.16;55.78;102154.72;5074376;28;20049;-67
2021/05/28 11:08:37;;;;;;;19.40;11.60;;;;;;;16.02;56.57;102148.84;5070583;28;20048;-66
2021/05/28 11:11:04;;;;;;;19.13;12.07;;;;;;;15.95;55.45;102147.25;5073590;28;20056;-67
2021/05/28 11:13:31;;;;;;;15.13;10.25;;;;;;;15.96;55.94;102143.75;5073164;28;20481;-67
2021/05/28 11:15:58;;;;;;;15.57;10.20;;;;;;;16.12;53.84;102145.16;5071841;28;20048;-67
2021/05/28 11:18:31;;;;;;;16.35;9.50;;;;;;;16.20;54.29;102142.38;5072751;28;20052;-66
2021/05/28 11:21:22;;;;;;;14.18;8.93;;;;;;;16.17;53.61;102138.06;5072160;28;20150;-66
2021/05/28 11:23:49;;;;;;;14.00;8.82;;;;;;;16.35;53.51;102135.09;5056878;28;20474;-67